sensor_id;sensor_type;location;lat;lon;timestamp;P1;durP1;ratioP1;P2;durP2;ratioP2
66702;SDS011;60933;46.398;-63.798;2022-12-07T00:01:06;4.70;;;1.15;;
66702;SDS011;60933;46.398;-63.798;2022-12-07T00:03:33;2.85;;;1.35;;
66702;SDS011;60933;46.398;-63.798;2022-12-07T00:06:00;2.72;;;1.17;;
66702;SDS011;60933;46.398;-63.798;2022-12-07T00:08:27;1.55;;;0.80;;
66702;SDS011;60933;46.398;-63.798;2022-12-07T00:10:55;2.58;;;1.23;;
66702;SDS011;60933;46.398;-63.798;2022-12-07T00:13:25;6.05;;;1.67;;
66702;SDS011;60933;46.398;-63.798;2022-12-07T00:15:51;3.17;;;1.40;;
66702;SDS011;60933;46.398;-63.798;2022-12-07T00:18:17;2.90;;;0.95;;
66702;SDS011;60933;46.398;-63.798;2022-12-07T00:20:44;4.25;;;1.40;;
66702;SDS011;60933;46.398;-63.798;2022-12-07T00:23:10;2.78;;;1.40;;
66702;SDS011;60933;46.398;-63.798;2022-12-07T00:25:36;5.50;;;1.75;;
66702;SDS011;60933;46.398;-63.798;2022-12-07T00:28:02;3.35;;;1.65;;
66702;SDS011;60933;46.398;-63.798;2022-12-07T00:30:28;2.88;;;1.23;;
66702;SDS011;60933;46.398;-63.798;2022-12-07T00:32:59;4.35;;;1.45;;
66702;SDS011;60933;46.398;-63.798;2022-12-07T00:35:29;2.97;;;1.63;;
66702;SDS011;60933;46.398;-63.798;2022-12-07T00:37:57;3.47;;;1.23;;
66702;SDS011;60933;46.398;-63.798;2022-12-07T00:40:24;3.13;;;1.42;;
66702;SDS011;60933;46.398;-63.798;2022-12-07T00:42:58;4.20;;;1.25;;
66702;SDS011;60933;46.398;-63.798;2022-12-07T00:45:25;2.70;;;1.00;;
66702;SDS011;60933;46.398;-63.798;2022-12-07T00:47:53;2.60;;;0.90;;
66702;SDS011;60933;46.398;-63.798;2022-12-07T00:50:19;2.53;;;1.23;;
66702;SDS011;60933;46.398;-63.798;2022-12-07T00:52:54;1.83;;;1.10;;
66702;SDS011;60933;46.398;-63.798;2022-12-07T00:55:32;2.97;;;1.70;;
66702;SDS011;60933;46.398;-63.798;2022-12-07T00:58:01;1.05;;;0.77;;
66702;SDS011;60933;46.398;-63.798;2022-12-07T01:00:28;2.88;;;1.25;;
66702;SDS011;60933;46.398;-63.798;2022-12-07T01:02:54;3.17;;;1.10;;
66702;SDS011;60933;46.398;-63.798;2022-12-07T01:05:21;2.90;;;1.20;;
66702;SDS011;60933;46.398;-63.798;2022-12-07T01:07:49;2.53;;;1.05;;
66702;SDS011;60933;46.398;-63.798;2022-12-07T01:10:15;2.33;;;0.90;;
66702;SDS011;60933;46.398;-63.798;2022-12-07T01:12:44;1.60;;;0.60;;
66702;SDS011;60933;46.398;-63.798;2022-12-07T01:15:12;2.80;;;1.17;;
66702;SDS011;60933;46.398;-63.798;2022-12-07T01:17:40;2.03;;;0.82;;
66702;SDS011;60933;46.398;-63.798;2022-12-07T01:20:07;2.10;;;1.33;;
66702;SDS011;60933;46.398;-63.798;2022-12-07T01:22:38;4.10;;;0.77;;
66702;SDS011;60933;46.398;-63.798;2022-12-07T01:25:07;3.55;;;1.00;;
66702;SDS011;60933;46.398;-63.798;2022-12-07T01:27:38;1.55;;;0.93;;
66702;SDS011;60933;46.398;-63.798;2022-12-07T01:30:05;1.65;;;0.88;;
66702;SDS011;60933;46.398;-63.798;2022-12-07T01:32:41;2.15;;;0.85;;
66702;SDS011;60933;46.398;-63.798;2022-12-07T01:35:09;1.98;;;0.73;;
66702;SDS011;60933;46.398;-63.798;2022-12-07T01:37:37;3.45;;;0.55;;
66702;SDS011;60933;46.398;-63.798;2022-12-07T01:40:05;3.47;;;0.90;;
66702;SDS011;60933;46.398;-63.798;2022-12-07T01:42:33;4.80;;;0.80;;
66702;SDS011;60933;46.398;-63.798;2022-12-07T01:47:46;3.88;;;0.90;;
66702;SDS011;60933;46.398;-63.798;2022-12-07T01:50:18;6.90;;;1.58;;
66702;SDS011;60933;46.398;-63.798;2022-12-07T01:52:46;1.75;;;0.73;;
66702;SDS011;60933;46.398;-63.798;2022-12-07T01:55:16;3.15;;;1.13;;
66702;SDS011;60933;46.398;-63.798;2022-12-07T01:57:47;3.90;;;1.25;;
66702;SDS011;60933;46.398;-63.798;2022-12-07T02:00:16;2.67;;;1.02;;
66702;SDS011;60933;46.398;-63.798;2022-12-07T02:02:57;3.55;;;0.82;;
66702;SDS011;60933;46.398;-63.798;2022-12-07T02:05:37;2.13;;;0.60;;
66702;SDS011;60933;46.398;-63.798;2022-12-07T02:08:05;2.63;;;0.77;;
66702;SDS011;60933;46.398;-63.798;2022-12-07T02:10:32;2.28;;;1.15;;
66702;SDS011;60933;46.398;-63.798;2022-12-07T02:13:03;4.28;;;2.60;;
66702;SDS011;60933;46.398;-63.798;2022-12-07T02:21:17;4.43;;;1.52;;
66702;SDS011;60933;46.398;-63.798;2022-12-07T02:30:04;2.50;;;0.93;;
66702;SDS011;60933;46.398;-63.798;2022-12-07T02:40:52;4.22;;;1.05;;
66702;SDS011;60933;46.398;-63.798;2022-12-07T02:43:27;3.65;;;1.25;;
66702;SDS011;60933;46.398;-63.798;2022-12-07T02:45:58;2.05;;;0.93;;
66702;SDS011;60933;46.398;-63.798;2022-12-07T02:48:32;2.05;;;0.80;;
66702;SDS011;60933;46.398;-63.798;2022-12-07T02:51:00;2.72;;;1.00;;
66702;SDS011;60933;46.398;-63.798;2022-12-07T02:53:30;3.92;;;1.42;;
66702;SDS011;60933;46.398;-63.798;2022-12-07T02:56:13;2.58;;;1.25;;
66702;SDS011;60933;46.398;-63.798;2022-12-07T03:04:33;2.20;;;1.00;;
66702;SDS011;60933;46.398;-63.798;2022-12-07T03:08:04;2.88;;;0.95;;
66702;SDS011;60933;46.398;-63.798;2022-12-07T03:18:10;1.45;;;0.82;;
66702;SDS011;60933;46.398;-63.798;2022-12-07T03:20:40;2.00;;;1.02;;
66702;SDS011;60933;46.398;-63.798;2022-12-07T03:23:09;3.17;;;0.98;;
66702;SDS011;60933;46.398;-63.798;2022-12-07T03:25:47;2.58;;;1.02;;
66702;SDS011;60933;46.398;-63.798;2022-12-07T03:28:18;3.03;;;1.30;;
66702;SDS011;60933;46.398;-63.798;2022-12-07T03:30:49;4.05;;;1.23;;
66702;SDS011;60933;46.398;-63.798;2022-12-07T03:33:22;3.22;;;0.80;;
66702;SDS011;60933;46.398;-63.798;2022-12-07T03:35:57;3.92;;;1.75;;
66702;SDS011;60933;46.398;-63.798;2022-12-07T03:38:34;4.57;;;1.52;;
66702;SDS011;60933;46.398;-63.798;2022-12-07T03:43:34;4.72;;;1.42;;
66702;SDS011;60933;46.398;-63.798;2022-12-07T03:49:22;3.70;;;1.50;;
66702;SDS011;60933;46.398;-63.798;2022-12-07T03:51:54;4.35;;;1.23;;
66702;SDS011;60933;46.398;-63.798;2022-12-07T03:56:58;4.35;;;1.63;;
66702;SDS011;60933;46.398;-63.798;2022-12-07T03:59:26;4.75;;;1.70;;
66702;SDS011;60933;46.398;-63.798;2022-12-07T04:01:55;3.70;;;1.65;;
66702;SDS011;60933;46.398;-63.798;2022-12-07T04:04:23;4.93;;;1.90;;
66702;SDS011;60933;46.398;-63.798;2022-12-07T04:06:50;5.85;;;2.10;;
66702;SDS011;60933;46.398;-63.798;2022-12-07T04:09:16;7.03;;;2.05;;
66702;SDS011;60933;46.398;-63.798;2022-12-07T04:11:43;4.57;;;1.83;;
66702;SDS011;60933;46.398;-63.798;2022-12-07T04:14:09;6.82;;;2.25;;
66702;SDS011;60933;46.398;-63.798;2022-12-07T04:17:02;4.28;;;1.67;;
66702;SDS011;60933;46.398;-63.798;2022-12-07T04:19:30;6.07;;;2.00;;
66702;SDS011;60933;46.398;-63.798;2022-12-07T04:21:59;6.10;;;1.80;;
66702;SDS011;60933;46.398;-63.798;2022-12-07T04:24:28;6.13;;;2.08;;
66702;SDS011;60933;46.398;-63.798;2022-12-07T04:26:54;6.40;;;1.80;;
66702;SDS011;60933;46.398;-63.798;2022-12-07T04:29:21;10.43;;;2.40;;
66702;SDS011;60933;46.398;-63.798;2022-12-07T04:31:47;8.95;;;2.25;;
66702;SDS011;60933;46.398;-63.798;2022-12-07T04:34:14;6.43;;;2.20;;
66702;SDS011;60933;46.398;-63.798;2022-12-07T04:36:41;5.72;;;2.38;;
66702;SDS011;60933;46.398;-63.798;2022-12-07T04:39:09;8.05;;;2.08;;
66702;SDS011;60933;46.398;-63.798;2022-12-07T04:41:44;6.32;;;2.00;;
66702;SDS011;60933;46.398;-63.798;2022-12-07T04:44:10;8.15;;;2.10;;
66702;SDS011;60933;46.398;-63.798;2022-12-07T04:46:39;4.95;;;1.98;;
66702;SDS011;60933;46.398;-63.798;2022-12-07T04:49:06;6.97;;;1.65;;
66702;SDS011;60933;46.398;-63.798;2022-12-07T04:51:32;6.18;;;2.10;;
66702;SDS011;60933;46.398;-63.798;2022-12-07T04:53:59;5.50;;;1.70;;
66702;SDS011;60933;46.398;-63.798;2022-12-07T04:56:25;4.85;;;1.67;;
66702;SDS011;60933;46.398;-63.798;2022-12-07T04:58:52;5.25;;;1.73;;
66702;SDS011;60933;46.398;-63.798;2022-12-07T05:01:20;5.93;;;2.10;;
66702;SDS011;60933;46.398;-63.798;2022-12-07T05:03:47;4.60;;;1.50;;
66702;SDS011;60933;46.398;-63.798;2022-12-07T05:06:13;4.13;;;1.55;;
66702;SDS011;60933;46.398;-63.798;2022-12-07T05:08:40;3.75;;;1.65;;
66702;SDS011;60933;46.398;-63.798;2022-12-07T05:11:07;6.20;;;1.75;;
66702;SDS011;60933;46.398;-63.798;2022-12-07T05:13:34;5.32;;;1.63;;
66702;SDS011;60933;46.398;-63.798;2022-12-07T05:16:00;4.68;;;1.25;;
66702;SDS011;60933;46.398;-63.798;2022-12-07T05:18:27;4.28;;;1.63;;
66702;SDS011;60933;46.398;-63.798;2022-12-07T05:20:53;4.78;;;1.48;;
66702;SDS011;60933;46.398;-63.798;2022-12-07T05:23:19;4.60;;;1.95;;
66702;SDS011;60933;46.398;-63.798;2022-12-07T05:25:46;6.97;;;1.85;;
66702;SDS011;60933;46.398;-63.798;2022-12-07T05:28:12;4.15;;;1.70;;
66702;SDS011;60933;46.398;-63.798;2022-12-07T05:30:38;5.88;;;1.65;;
66702;SDS011;60933;46.398;-63.798;2022-12-07T05:33:04;4.00;;;1.52;;
66702;SDS011;60933;46.398;-63.798;2022-12-07T05:35:30;5.80;;;1.98;;
66702;SDS011;60933;46.398;-63.798;2022-12-07T05:37:56;5.07;;;1.98;;
66702;SDS011;60933;46.398;-63.798;2022-12-07T05:40:23;8.57;;;2.45;;
66702;SDS011;60933;46.398;-63.798;2022-12-07T05:42:49;14.52;;;3.17;;
66702;SDS011;60933;46.398;-63.798;2022-12-07T05:45:15;11.45;;;3.67;;
66702;SDS011;60933;46.398;-63.798;2022-12-07T05:47:41;6.50;;;2.30;;
66702;SDS011;60933;46.398;-63.798;2022-12-07T05:50:07;7.38;;;2.47;;
66702;SDS011;60933;46.398;-63.798;2022-12-07T05:52:34;8.40;;;2.33;;
66702;SDS011;60933;46.398;-63.798;2022-12-07T05:55:00;7.25;;;2.40;;
66702;SDS011;60933;46.398;-63.798;2022-12-07T05:57:26;7.32;;;2.40;;
66702;SDS011;60933;46.398;-63.798;2022-12-07T05:59:52;8.98;;;2.58;;
66702;SDS011;60933;46.398;-63.798;2022-12-07T06:02:18;5.88;;;2.25;;
66702;SDS011;60933;46.398;-63.798;2022-12-07T06:04:45;5.43;;;2.33;;
66702;SDS011;60933;46.398;-63.798;2022-12-07T06:07:12;8.52;;;3.00;;
66702;SDS011;60933;46.398;-63.798;2022-12-07T06:09:40;9.65;;;3.10;;
66702;SDS011;60933;46.398;-63.798;2022-12-07T06:12:06;7.90;;;2.70;;
66702;SDS011;60933;46.398;-63.798;2022-12-07T06:14:53;7.57;;;2.58;;
66702;SDS011;60933;46.398;-63.798;2022-12-07T06:17:20;6.40;;;2.03;;
66702;SDS011;60933;46.398;-63.798;2022-12-07T06:19:46;6.63;;;1.90;;
66702;SDS011;60933;46.398;-63.798;2022-12-07T06:22:12;6.82;;;2.90;;
66702;SDS011;60933;46.398;-63.798;2022-12-07T06:24:38;6.95;;;2.38;;
66702;SDS011;60933;46.398;-63.798;2022-12-07T06:27:05;7.50;;;2.40;;
66702;SDS011;60933;46.398;-63.798;2022-12-07T06:29:31;6.22;;;2.35;;
66702;SDS011;60933;46.398;-63.798;2022-12-07T06:31:58;8.00;;;2.55;;
66702;SDS011;60933;46.398;-63.798;2022-12-07T06:34:25;6.90;;;2.53;;
66702;SDS011;60933;46.398;-63.798;2022-12-07T06:36:52;5.32;;;2.03;;
66702;SDS011;60933;46.398;-63.798;2022-12-07T06:39:24;4.95;;;2.50;;
66702;SDS011;60933;46.398;-63.798;2022-12-07T06:41:51;7.93;;;2.38;;
66702;SDS011;60933;46.398;-63.798;2022-12-07T06:44:19;7.22;;;2.60;;
66702;SDS011;60933;46.398;-63.798;2022-12-07T06:46:46;6.03;;;2.00;;
66702;SDS011;60933;46.398;-63.798;2022-12-07T06:49:12;9.68;;;2.88;;
66702;SDS011;60933;46.398;-63.798;2022-12-07T06:51:38;5.07;;;1.92;;
66702;SDS011;60933;46.398;-63.798;2022-12-07T06:54:07;6.97;;;2.33;;
66702;SDS011;60933;46.398;-63.798;2022-12-07T06:56:36;6.75;;;2.63;;
66702;SDS011;60933;46.398;-63.798;2022-12-07T06:59:03;6.15;;;2.20;;
66702;SDS011;60933;46.398;-63.798;2022-12-07T07:01:32;6.90;;;3.15;;
66702;SDS011;60933;46.398;-63.798;2022-12-07T07:03:59;5.28;;;1.98;;
66702;SDS011;60933;46.398;-63.798;2022-12-07T07:06:25;4.15;;;1.73;;
66702;SDS011;60933;46.398;-63.798;2022-12-07T07:08:51;5.80;;;2.13;;
66702;SDS011;60933;46.398;-63.798;2022-12-07T07:11:18;4.47;;;1.60;;
66702;SDS011;60933;46.398;-63.798;2022-12-07T07:13:44;3.72;;;1.55;;
66702;SDS011;60933;46.398;-63.798;2022-12-07T07:16:10;4.30;;;2.05;;
66702;SDS011;60933;46.398;-63.798;2022-12-07T07:18:37;5.55;;;2.20;;
66702;SDS011;60933;46.398;-63.798;2022-12-07T07:21:04;4.93;;;2.58;;
66702;SDS011;60933;46.398;-63.798;2022-12-07T07:23:30;6.65;;;2.20;;
66702;SDS011;60933;46.398;-63.798;2022-12-07T07:25:56;5.25;;;2.42;;
66702;SDS011;60933;46.398;-63.798;2022-12-07T07:28:22;6.10;;;2.08;;
66702;SDS011;60933;46.398;-63.798;2022-12-07T07:30:48;5.82;;;2.30;;
66702;SDS011;60933;46.398;-63.798;2022-12-07T07:33:14;5.45;;;2.08;;
66702;SDS011;60933;46.398;-63.798;2022-12-07T07:35:40;5.32;;;2.63;;
66702;SDS011;60933;46.398;-63.798;2022-12-07T07:38:07;5.57;;;2.40;;
66702;SDS011;60933;46.398;-63.798;2022-12-07T07:40:33;8.80;;;2.83;;
66702;SDS011;60933;46.398;-63.798;2022-12-07T07:43:00;6.53;;;2.55;;
66702;SDS011;60933;46.398;-63.798;2022-12-07T07:45:26;6.55;;;2.33;;
66702;SDS011;60933;46.398;-63.798;2022-12-07T07:47:52;5.00;;;1.92;;
66702;SDS011;60933;46.398;-63.798;2022-12-07T07:50:19;5.28;;;1.80;;
66702;SDS011;60933;46.398;-63.798;2022-12-07T07:52:45;5.63;;;2.38;;
66702;SDS011;60933;46.398;-63.798;2022-12-07T07:55:11;6.20;;;2.15;;
66702;SDS011;60933;46.398;-63.798;2022-12-07T07:57:38;6.00;;;2.17;;
66702;SDS011;60933;46.398;-63.798;2022-12-07T08:00:05;5.85;;;2.30;;
66702;SDS011;60933;46.398;-63.798;2022-12-07T08:02:34;5.57;;;2.33;;
66702;SDS011;60933;46.398;-63.798;2022-12-07T08:05:00;7.57;;;2.70;;
66702;SDS011;60933;46.398;-63.798;2022-12-07T08:07:27;6.50;;;2.17;;
66702;SDS011;60933;46.398;-63.798;2022-12-07T08:09:53;5.30;;;2.22;;
66702;SDS011;60933;46.398;-63.798;2022-12-07T08:12:19;5.05;;;2.05;;
66702;SDS011;60933;46.398;-63.798;2022-12-07T08:14:46;8.55;;;2.08;;
66702;SDS011;60933;46.398;-63.798;2022-12-07T08:17:12;6.38;;;2.25;;
66702;SDS011;60933;46.398;-63.798;2022-12-07T08:19:38;5.32;;;1.70;;
66702;SDS011;60933;46.398;-63.798;2022-12-07T08:22:04;4.72;;;1.63;;
66702;SDS011;60933;46.398;-63.798;2022-12-07T08:24:32;5.03;;;1.50;;
66702;SDS011;60933;46.398;-63.798;2022-12-07T08:27:00;4.50;;;1.70;;
66702;SDS011;60933;46.398;-63.798;2022-12-07T08:29:26;4.90;;;1.67;;
66702;SDS011;60933;46.398;-63.798;2022-12-07T08:31:52;5.30;;;1.60;;
66702;SDS011;60933;46.398;-63.798;2022-12-07T08:34:18;5.03;;;1.80;;
66702;SDS011;60933;46.398;-63.798;2022-12-07T08:36:44;5.80;;;1.73;;
66702;SDS011;60933;46.398;-63.798;2022-12-07T08:39:10;3.47;;;1.45;;
66702;SDS011;60933;46.398;-63.798;2022-12-07T08:41:36;3.63;;;1.60;;
66702;SDS011;60933;46.398;-63.798;2022-12-07T08:44:02;4.30;;;1.35;;
66702;SDS011;60933;46.398;-63.798;2022-12-07T08:46:37;5.60;;;1.90;;
66702;SDS011;60933;46.398;-63.798;2022-12-07T08:49:18;4.40;;;1.40;;
66702;SDS011;60933;46.398;-63.798;2022-12-07T08:51:49;5.05;;;1.63;;
66702;SDS011;60933;46.398;-63.798;2022-12-07T08:54:16;4.47;;;1.70;;
66702;SDS011;60933;46.398;-63.798;2022-12-07T08:56:44;6.05;;;2.08;;
66702;SDS011;60933;46.398;-63.798;2022-12-07T08:59:12;4.05;;;1.73;;
66702;SDS011;60933;46.398;-63.798;2022-12-07T09:01:42;6.45;;;1.88;;
66702;SDS011;60933;46.398;-63.798;2022-12-07T09:04:08;7.78;;;2.10;;
66702;SDS011;60933;46.398;-63.798;2022-12-07T09:06:34;6.50;;;1.63;;
66702;SDS011;60933;46.398;-63.798;2022-12-07T09:09:01;6.20;;;2.17;;
66702;SDS011;60933;46.398;-63.798;2022-12-07T09:11:28;6.05;;;2.03;;
66702;SDS011;60933;46.398;-63.798;2022-12-07T09:13:55;5.55;;;1.75;;
66702;SDS011;60933;46.398;-63.798;2022-12-07T09:16:21;9.43;;;2.45;;
66702;SDS011;60933;46.398;-63.798;2022-12-07T09:18:47;8.90;;;2.33;;
66702;SDS011;60933;46.398;-63.798;2022-12-07T09:21:13;10.45;;;2.28;;
66702;SDS011;60933;46.398;-63.798;2022-12-07T09:23:40;8.60;;;2.85;;
66702;SDS011;60933;46.398;-63.798;2022-12-07T09:26:07;9.90;;;2.55;;
66702;SDS011;60933;46.398;-63.798;2022-12-07T09:28:33;9.55;;;2.75;;
66702;SDS011;60933;46.398;-63.798;2022-12-07T09:30:59;8.60;;;2.50;;
66702;SDS011;60933;46.398;-63.798;2022-12-07T09:33:26;8.75;;;2.72;;
66702;SDS011;60933;46.398;-63.798;2022-12-07T09:35:52;9.50;;;2.65;;
66702;SDS011;60933;46.398;-63.798;2022-12-07T09:38:18;7.75;;;2.67;;
66702;SDS011;60933;46.398;-63.798;2022-12-07T09:40:45;9.38;;;2.55;;
66702;SDS011;60933;46.398;-63.798;2022-12-07T09:43:22;11.63;;;2.88;;
66702;SDS011;60933;46.398;-63.798;2022-12-07T09:45:53;11.20;;;2.58;;
66702;SDS011;60933;46.398;-63.798;2022-12-07T09:48:39;8.90;;;2.47;;
66702;SDS011;60933;46.398;-63.798;2022-12-07T09:53:48;14.27;;;2.92;;
66702;SDS011;60933;46.398;-63.798;2022-12-07T09:56:16;8.18;;;2.72;;
66702;SDS011;60933;46.398;-63.798;2022-12-07T09:58:43;7.38;;;2.30;;
66702;SDS011;60933;46.398;-63.798;2022-12-07T10:01:12;9.55;;;2.83;;
66702;SDS011;60933;46.398;-63.798;2022-12-07T10:10:28;7.20;;;2.08;;
66702;SDS011;60933;46.398;-63.798;2022-12-07T10:13:09;8.15;;;1.80;;
66702;SDS011;60933;46.398;-63.798;2022-12-07T10:19:24;10.05;;;2.28;;
66702;SDS011;60933;46.398;-63.798;2022-12-07T10:22:16;7.13;;;2.45;;
66702;SDS011;60933;46.398;-63.798;2022-12-07T10:24:43;6.85;;;2.20;;
66702;SDS011;60933;46.398;-63.798;2022-12-07T10:27:21;6.35;;;1.85;;
66702;SDS011;60933;46.398;-63.798;2022-12-07T10:29:52;7.07;;;2.33;;
66702;SDS011;60933;46.398;-63.798;2022-12-07T10:34:45;8.75;;;2.38;;
66702;SDS011;60933;46.398;-63.798;2022-12-07T10:39:45;6.43;;;1.85;;
66702;SDS011;60933;46.398;-63.798;2022-12-07T10:42:16;6.13;;;1.90;;
66702;SDS011;60933;46.398;-63.798;2022-12-07T10:44:45;5.85;;;1.50;;
66702;SDS011;60933;46.398;-63.798;2022-12-07T10:49:55;4.88;;;1.30;;
66702;SDS011;60933;46.398;-63.798;2022-12-07T10:52:58;6.25;;;1.42;;
66702;SDS011;60933;46.398;-63.798;2022-12-07T11:01:13;5.82;;;1.92;;
66702;SDS011;60933;46.398;-63.798;2022-12-07T11:07:06;4.35;;;1.23;;
66702;SDS011;60933;46.398;-63.798;2022-12-07T11:12:32;2.63;;;1.05;;
66702;SDS011;60933;46.398;-63.798;2022-12-07T11:20:33;2.85;;;0.90;;
66702;SDS011;60933;46.398;-63.798;2022-12-07T11:23:23;2.72;;;0.77;;
66702;SDS011;60933;46.398;-63.798;2022-12-07T11:31:52;3.45;;;1.33;;
66702;SDS011;60933;46.398;-63.798;2022-12-07T11:34:24;2.35;;;0.98;;
66702;SDS011;60933;46.398;-63.798;2022-12-07T11:36:53;4.05;;;1.25;;
66702;SDS011;60933;46.398;-63.798;2022-12-07T11:39:24;3.33;;;1.10;;
66702;SDS011;60933;46.398;-63.798;2022-12-07T11:42:30;2.92;;;1.27;;
66702;SDS011;60933;46.398;-63.798;2022-12-07T11:44:59;4.88;;;1.30;;
66702;SDS011;60933;46.398;-63.798;2022-12-07T11:47:50;3.25;;;1.00;;
66702;SDS011;60933;46.398;-63.798;2022-12-07T11:58:38;2.97;;;1.13;;
66702;SDS011;60933;46.398;-63.798;2022-12-07T12:04:50;2.65;;;0.95;;
66702;SDS011;60933;46.398;-63.798;2022-12-07T12:07:24;2.53;;;1.13;;
66702;SDS011;60933;46.398;-63.798;2022-12-07T12:10:04;3.20;;;0.90;;
66702;SDS011;60933;46.398;-63.798;2022-12-07T12:12:43;2.53;;;1.30;;
66702;SDS011;60933;46.398;-63.798;2022-12-07T12:23:51;4.28;;;1.95;;
66702;SDS011;60933;46.398;-63.798;2022-12-07T12:26:32;2.83;;;1.42;;
66702;SDS011;60933;46.398;-63.798;2022-12-07T12:31:46;1.98;;;0.85;;
66702;SDS011;60933;46.398;-63.798;2022-12-07T12:42:47;1.30;;;0.70;;
66702;SDS011;60933;46.398;-63.798;2022-12-07T12:45:36;2.50;;;0.73;;
66702;SDS011;60933;46.398;-63.798;2022-12-07T12:51:35;1.98;;;0.43;;
66702;SDS011;60933;46.398;-63.798;2022-12-07T12:54:10;1.60;;;0.43;;
66702;SDS011;60933;46.398;-63.798;2022-12-07T13:13:02;1.27;;;0.50;;
66702;SDS011;60933;46.398;-63.798;2022-12-07T13:28:51;0.45;;;0.30;;
66702;SDS011;60933;46.398;-63.798;2022-12-07T13:31:32;0.63;;;0.20;;
66702;SDS011;60933;46.398;-63.798;2022-12-07T13:34:02;0.60;;;0.10;;
66702;SDS011;60933;46.398;-63.798;2022-12-07T13:36:30;0.40;;;0.30;;
66702;SDS011;60933;46.398;-63.798;2022-12-07T13:42:06;0.57;;;0.28;;
66702;SDS011;60933;46.398;-63.798;2022-12-07T13:44:40;0.70;;;0.70;;
66702;SDS011;60933;46.398;-63.798;2022-12-07T13:49:46;0.68;;;0.10;;
66702;SDS011;60933;46.398;-63.798;2022-12-07T13:54:47;1.38;;;0.30;;
66702;SDS011;60933;46.398;-63.798;2022-12-07T13:57:15;0.32;;;0.32;;
66702;SDS011;60933;46.398;-63.798;2022-12-07T13:59:42;0.93;;;0.35;;
66702;SDS011;60933;46.398;-63.798;2022-12-07T14:02:19;0.20;;;0.20;;
66702;SDS011;60933;46.398;-63.798;2022-12-07T14:04:48;0.32;;;0.20;;
66702;SDS011;60933;46.398;-63.798;2022-12-07T14:07:26;0.50;;;0.20;;
66702;SDS011;60933;46.398;-63.798;2022-12-07T14:10:00;0.88;;;0.40;;
66702;SDS011;60933;46.398;-63.798;2022-12-07T14:12:31;0.88;;;0.20;;
66702;SDS011;60933;46.398;-63.798;2022-12-07T14:14:58;0.55;;;0.22;;
66702;SDS011;60933;46.398;-63.798;2022-12-07T14:17:27;0.43;;;0.28;;
66702;SDS011;60933;46.398;-63.798;2022-12-07T14:19:54;1.17;;;0.20;;
66702;SDS011;60933;46.398;-63.798;2022-12-07T14:22:23;0.22;;;0.22;;
66702;SDS011;60933;46.398;-63.798;2022-12-07T14:24:50;1.25;;;0.35;;
66702;SDS011;60933;46.398;-63.798;2022-12-07T14:27:20;0.60;;;0.10;;
66702;SDS011;60933;46.398;-63.798;2022-12-07T14:29:50;0.40;;;0.32;;
66702;SDS011;60933;46.398;-63.798;2022-12-07T14:32:24;0.63;;;0.15;;
66702;SDS011;60933;46.398;-63.798;2022-12-07T14:35:01;0.20;;;0.10;;
66702;SDS011;60933;46.398;-63.798;2022-12-07T14:37:36;0.10;;;0.10;;
66702;SDS011;60933;46.398;-63.798;2022-12-07T14:40:04;0.70;;;0.22;;
66702;SDS011;60933;46.398;-63.798;2022-12-07T14:42:31;0.50;;;0.40;;
66702;SDS011;60933;46.398;-63.798;2022-12-07T14:44:59;0.22;;;0.22;;
66702;SDS011;60933;46.398;-63.798;2022-12-07T14:47:28;0.10;;;0.10;;
66702;SDS011;60933;46.398;-63.798;2022-12-07T14:49:54;1.17;;;0.20;;
66702;SDS011;60933;46.398;-63.798;2022-12-07T14:52:21;0.38;;;0.35;;
66702;SDS011;60933;46.398;-63.798;2022-12-07T14:54:52;0.70;;;0.22;;
66702;SDS011;60933;46.398;-63.798;2022-12-07T14:57:19;0.80;;;0.50;;
66702;SDS011;60933;46.398;-63.798;2022-12-07T14:59:45;1.17;;;0.43;;
66702;SDS011;60933;46.398;-63.798;2022-12-07T15:02:12;1.25;;;0.30;;
66702;SDS011;60933;46.398;-63.798;2022-12-07T15:04:39;0.30;;;0.20;;
66702;SDS011;60933;46.398;-63.798;2022-12-07T15:07:09;1.38;;;0.93;;
66702;SDS011;60933;46.398;-63.798;2022-12-07T15:09:47;1.15;;;0.65;;
66702;SDS011;60933;46.398;-63.798;2022-12-07T15:12:13;0.32;;;0.30;;
66702;SDS011;60933;46.398;-63.798;2022-12-07T15:14:40;0.52;;;0.20;;
66702;SDS011;60933;46.398;-63.798;2022-12-07T15:17:07;0.63;;;0.47;;
66702;SDS011;60933;46.398;-63.798;2022-12-07T15:19:37;0.47;;;0.13;;
66702;SDS011;60933;46.398;-63.798;2022-12-07T15:22:03;0.47;;;0.22;;
66702;SDS011;60933;46.398;-63.798;2022-12-07T15:24:29;0.50;;;0.32;;
66702;SDS011;60933;46.398;-63.798;2022-12-07T15:26:56;0.93;;;0.13;;
66702;SDS011;60933;46.398;-63.798;2022-12-07T15:29:22;0.40;;;0.40;;
66702;SDS011;60933;46.398;-63.798;2022-12-07T15:31:49;0.47;;;0.40;;
66702;SDS011;60933;46.398;-63.798;2022-12-07T15:34:19;0.80;;;0.22;;
66702;SDS011;60933;46.398;-63.798;2022-12-07T15:36:48;0.57;;;0.30;;
66702;SDS011;60933;46.398;-63.798;2022-12-07T15:39:15;0.88;;;0.40;;
66702;SDS011;60933;46.398;-63.798;2022-12-07T15:41:43;0.47;;;0.43;;
66702;SDS011;60933;46.398;-63.798;2022-12-07T15:44:13;1.05;;;0.35;;
66702;SDS011;60933;46.398;-63.798;2022-12-07T15:46:58;0.40;;;0.40;;
66702;SDS011;60933;46.398;-63.798;2022-12-07T15:49:25;0.40;;;0.30;;
66702;SDS011;60933;46.398;-63.798;2022-12-07T15:51:52;0.10;;;0.10;;
66702;SDS011;60933;46.398;-63.798;2022-12-07T15:54:28;0.65;;;0.32;;
66702;SDS011;60933;46.398;-63.798;2022-12-07T15:56:55;0.15;;;0.15;;
66702;SDS011;60933;46.398;-63.798;2022-12-07T15:59:22;1.27;;;0.32;;
66702;SDS011;60933;46.398;-63.798;2022-12-07T16:01:48;0.60;;;0.32;;
66702;SDS011;60933;46.398;-63.798;2022-12-07T16:04:17;0.50;;;0.40;;
66702;SDS011;60933;46.398;-63.798;2022-12-07T16:09:13;0.52;;;0.35;;
66702;SDS011;60933;46.398;-63.798;2022-12-07T16:11:42;0.10;;;0.10;;
66702;SDS011;60933;46.398;-63.798;2022-12-07T16:14:09;0.13;;;0.13;;
66702;SDS011;60933;46.398;-63.798;2022-12-07T16:16:39;0.30;;;0.20;;
66702;SDS011;60933;46.398;-63.798;2022-12-07T16:19:07;0.52;;;0.38;;
66702;SDS011;60933;46.398;-63.798;2022-12-07T16:21:34;0.70;;;0.32;;
66702;SDS011;60933;46.398;-63.798;2022-12-07T16:24:04;0.65;;;0.20;;
66702;SDS011;60933;46.398;-63.798;2022-12-07T16:26:32;1.50;;;0.63;;
66702;SDS011;60933;46.398;-63.798;2022-12-07T16:28:58;0.30;;;0.20;;
66702;SDS011;60933;46.398;-63.798;2022-12-07T16:31:26;0.47;;;0.13;;
66702;SDS011;60933;46.398;-63.798;2022-12-07T16:33:54;0.70;;;0.30;;
66702;SDS011;60933;46.398;-63.798;2022-12-07T16:36:24;0.40;;;0.10;;
66702;SDS011;60933;46.398;-63.798;2022-12-07T16:38:51;0.50;;;0.30;;
66702;SDS011;60933;46.398;-63.798;2022-12-07T16:41:18;1.42;;;0.38;;
66702;SDS011;60933;46.398;-63.798;2022-12-07T16:43:44;0.20;;;0.20;;
66702;SDS011;60933;46.398;-63.798;2022-12-07T16:46:11;0.65;;;0.22;;
66702;SDS011;60933;46.398;-63.798;2022-12-07T16:48:38;0.13;;;0.13;;
66702;SDS011;60933;46.398;-63.798;2022-12-07T16:51:06;0.25;;;0.25;;
66702;SDS011;60933;46.398;-63.798;2022-12-07T16:53:37;0.13;;;0.13;;
66702;SDS011;60933;46.398;-63.798;2022-12-07T16:56:12;0.35;;;0.30;;
66702;SDS011;60933;46.398;-63.798;2022-12-07T16:58:41;0.20;;;0.20;;
66702;SDS011;60933;46.398;-63.798;2022-12-07T17:01:15;0.45;;;0.20;;
66702;SDS011;60933;46.398;-63.798;2022-12-07T17:03:43;0.43;;;0.30;;
66702;SDS011;60933;46.398;-63.798;2022-12-07T17:06:13;0.30;;;0.30;;
66702;SDS011;60933;46.398;-63.798;2022-12-07T17:08:41;0.22;;;0.20;;
66702;SDS011;60933;46.398;-63.798;2022-12-07T17:11:15;0.22;;;0.22;;
66702;SDS011;60933;46.398;-63.798;2022-12-07T17:13:43;0.32;;;0.32;;
66702;SDS011;60933;46.398;-63.798;2022-12-07T17:16:27;1.00;;;0.20;;
66702;SDS011;60933;46.398;-63.798;2022-12-07T17:18:54;1.30;;;0.20;;